createdAt,value
2023-05-09T00:00:20.993Z,29.50
2023-05-09T00:01:23.416Z,29.50
2023-05-09T00:02:25.089Z,33.50
2023-05-09T00:03:27.874Z,30.75
2023-05-09T00:04:30.147Z,27.50
2023-05-09T00:05:32.683Z,31.00
2023-05-09T00:06:34.127Z,33.75
2023-05-09T00:07:36.565Z,29.25
2023-05-09T00:08:38.031Z,34.00
2023-05-09T00:09:40.450Z,29.75
2023-05-09T00:10:41.992Z,31.50
2023-05-09T00:11:44.485Z,32.50
2023-05-09T00:12:46.027Z,30.25
2023-05-09T00:13:48.933Z,27.00
2023-05-09T00:14:54.246Z,27.75
2023-05-09T00:15:57.361Z,29.00
2023-05-09T00:16:59.224Z,31.00
2023-05-09T00:18:01.745Z,34.25
2023-05-09T00:19:03.500Z,30.50
2023-05-09T00:20:08.904Z,31.00
2023-05-09T00:21:10.995Z,32.75
2023-05-09T00:22:13.817Z,30.00
2023-05-09T00:23:15.462Z,32.75
2023-05-09T00:24:17.899Z,27.00
2023-05-09T00:25:19.327Z,33.25
2023-05-09T00:26:22.274Z,32.00
2023-05-09T00:27:23.707Z,33.25
2023-05-09T00:28:26.133Z,34.75
2023-05-09T00:29:28.599Z,36.50
2023-05-09T00:30:31.395Z,37.50
2023-05-09T00:31:33.870Z,34.50
2023-05-09T00:32:35.655Z,30.00
2023-05-09T00:33:38.104Z,32.00
2023-05-09T00:34:39.586Z,34.50
2023-05-09T00:35:41.997Z,31.75
2023-05-09T00:36:43.461Z,37.00
2023-05-09T00:37:45.864Z,42.00
2023-05-09T00:38:47.380Z,38.00
2023-05-09T00:39:49.793Z,30.00
2023-05-09T00:40:51.296Z,36.25
2023-05-09T00:41:53.732Z,35.50
2023-05-09T00:42:58.203Z,36.75
2023-05-09T00:44:00.638Z,33.50
2023-05-09T00:45:02.149Z,32.50
2023-05-09T00:46:05.942Z,30.00
2023-05-09T00:47:07.453Z,35.50
2023-05-09T00:48:09.881Z,37.50
2023-05-09T00:49:12.334Z,35.00
2023-05-09T00:50:14.830Z,34.50
2023-05-09T00:51:16.445Z,35.00
2023-05-09T00:52:23.352Z,35.25
2023-05-09T00:53:24.889Z,35.50
2023-05-09T00:54:27.332Z,35.50
2023-05-09T00:55:28.776Z,31.75
2023-05-09T00:56:31.188Z,30.00
2023-05-09T00:57:33.331Z,31.75
2023-05-09T00:58:35.799Z,30.75
2023-05-09T00:59:37.257Z,35.25
2023-05-09T01:00:39.686Z,34.50
2023-05-09T01:01:42.513Z,34.25
2023-05-09T01:02:45.702Z,39.25
2023-05-09T01:03:47.584Z,34.50
2023-05-09T01:04:50.098Z,34.50
2023-05-09T01:05:53.183Z,29.75
2023-05-09T01:06:57.268Z,37.00
2023-05-09T01:08:00.911Z,36.75
2023-05-09T01:09:03.826Z,34.75
2023-05-09T01:10:07.179Z,36.75
2023-05-09T01:11:11.098Z,43.50
2023-05-09T01:12:13.986Z,40.00
2023-05-09T01:13:22.626Z,40.00
2023-05-09T01:14:25.885Z,31.50
2023-05-09T01:15:29.544Z,32.25
2023-05-09T01:16:31.363Z,33.50
2023-05-09T01:17:37.743Z,33.25
2023-05-09T01:18:40.298Z,32.25
2023-05-09T01:19:51.981Z,33.25
2023-05-09T01:20:53.938Z,35.00
2023-05-09T01:21:56.522Z,38.75
2023-05-09T01:23:01.372Z,31.00
2023-05-09T01:24:15.636Z,33.00
2023-05-09T01:25:23.033Z,34.00
2023-05-09T01:26:26.758Z,34.00
2023-05-09T01:27:31.067Z,28.50
2023-05-09T01:28:35.708Z,38.00
2023-05-09T01:29:39.516Z,29.25
2023-05-09T01:30:42.906Z,33.00
2023-05-09T01:31:44.431Z,36.50
2023-05-09T01:32:47.338Z,37.75
2023-05-09T01:33:51.174Z,32.75
2023-05-09T01:34:53.803Z,37.00
2023-05-09T01:35:58.023Z,35.50
2023-05-09T01:37:00.699Z,32.00
2023-05-09T01:38:02.446Z,37.50
2023-05-09T01:39:05.254Z,35.50
2023-05-09T01:40:07.440Z,31.75
2023-05-09T01:41:09.960Z,33.00
2023-05-09T01:42:11.367Z,33.75
2023-05-09T01:43:13.765Z,38.25
2023-05-09T01:44:15.236Z,36.00
2023-05-09T01:45:19.050Z,36.50
2023-05-09T01:46:20.630Z,37.50
2023-05-09T01:47:23.259Z,36.50
2023-05-09T01:48:26.302Z,36.00
2023-05-09T01:49:29.588Z,40.00
2023-05-09T01:50:31.081Z,36.75
2023-05-09T01:51:34.473Z,38.25
2023-05-09T01:52:36.039Z,35.50
2023-05-09T01:53:38.432Z,36.00
2023-05-09T01:54:39.837Z,36.25
2023-05-09T01:55:42.457Z,39.25
2023-05-09T01:56:43.886Z,35.50
2023-05-09T01:57:46.291Z,33.50
2023-05-09T01:58:48.257Z,38.00
2023-05-09T01:59:50.803Z,37.50
2023-05-09T02:00:53.594Z,34.25
2023-05-09T02:01:56.179Z,33.25
2023-05-09T02:02:57.660Z,37.50
2023-05-09T02:04:00.116Z,41.00
2023-05-09T02:05:01.553Z,40.25
2023-05-09T02:06:04.010Z,40.25
2023-05-09T02:07:05.952Z,39.75
2023-05-09T02:08:08.582Z,36.75
2023-05-09T02:09:10.018Z,40.50
2023-05-09T02:10:12.437Z,34.50
2023-05-09T02:11:13.837Z,37.75
2023-05-09T02:12:16.521Z,41.75
2023-05-09T02:13:18.954Z,37.50
2023-05-09T02:14:20.379Z,39.25
2023-05-09T02:15:22.820Z,36.50
2023-05-09T02:16:25.669Z,40.00
2023-05-09T02:17:31.005Z,36.50
2023-05-09T02:18:32.683Z,35.25
2023-05-09T02:19:35.250Z,36.25
2023-05-09T02:20:36.672Z,42.00
2023-05-09T02:21:39.053Z,37.50
2023-05-09T02:22:41.043Z,33.00
2023-05-09T02:23:43.466Z,37.50
2023-05-09T02:24:45.083Z,46.50
2023-05-09T02:25:47.458Z,37.00
2023-05-09T02:26:48.876Z,42.75
2023-05-09T02:27:51.351Z,43.50
2023-05-09T02:28:52.750Z,40.50
2023-05-09T02:29:56.376Z,41.50
2023-05-09T02:30:58.709Z,42.00
2023-05-09T02:32:02.482Z,40.25
2023-05-09T02:33:05.099Z,36.00
2023-05-09T02:34:07.525Z,42.25
2023-05-09T02:35:09.674Z,39.50
2023-05-09T02:36:12.070Z,36.75
2023-05-09T02:37:13.527Z,33.75
2023-05-09T02:38:16.093Z,40.25
2023-05-09T02:39:17.505Z,43.00
2023-05-09T02:40:20.196Z,44.00
2023-05-09T02:41:21.787Z,40.00
2023-05-09T02:42:25.223Z,42.25
2023-05-09T02:43:26.856Z,38.25
2023-05-09T02:44:29.235Z,50.25
2023-05-09T02:45:30.684Z,40.25
2023-05-09T02:46:33.117Z,37.25
2023-05-09T02:47:35.984Z,42.50
2023-05-09T02:48:38.497Z,40.25
2023-05-09T02:49:39.925Z,45.00
2023-05-09T02:50:43.335Z,41.25
2023-05-09T02:51:44.749Z,39.75
2023-05-09T02:52:47.147Z,40.75
2023-05-09T02:53:48.697Z,41.50
2023-05-09T02:54:51.077Z,43.50
2023-05-09T02:55:53.824Z,43.25
2023-05-09T02:56:56.212Z,47.25
2023-05-09T02:58:11.958Z,41.25
2023-05-09T02:59:15.378Z,42.25
2023-05-09T03:00:18.599Z,41.75
2023-05-09T03:01:20.066Z,46.00
2023-05-09T03:02:23.605Z,48.00
2023-05-09T03:03:26.567Z,41.25
2023-05-09T03:04:29.113Z,40.00
2023-05-09T03:05:30.744Z,40.75
2023-05-09T03:06:33.131Z,37.25
2023-05-09T03:07:34.852Z,43.00
2023-05-09T03:08:37.243Z,40.00
2023-05-09T03:09:41.027Z,47.75
2023-05-09T03:10:42.668Z,36.25
2023-05-09T03:11:45.066Z,41.50
2023-05-09T03:12:46.540Z,39.75
2023-05-09T03:13:48.960Z,43.50
2023-05-09T03:14:50.510Z,40.00
2023-05-09T03:15:52.934Z,40.75
2023-05-09T03:16:54.391Z,43.25
2023-05-09T03:17:56.791Z,46.00
2023-05-09T03:19:00.649Z,39.25
2023-05-09T03:20:05.489Z,46.50
2023-05-09T03:21:06.899Z,43.50
2023-05-09T03:22:09.351Z,42.50
2023-05-09T03:23:10.805Z,46.25
2023-05-09T03:24:13.445Z,42.50
2023-05-09T03:25:15.067Z,40.25
2023-05-09T03:26:17.647Z,37.00
2023-05-09T03:27:19.418Z,48.75
2023-05-09T03:28:21.804Z,46.00
2023-05-09T03:29:23.304Z,43.00
2023-05-09T03:30:26.476Z,42.25
2023-05-09T03:31:28.060Z,49.75
2023-05-09T03:32:30.497Z,53.25
2023-05-09T03:33:31.940Z,50.75
2023-05-09T03:34:35.772Z,48.25
2023-05-09T03:35:37.187Z,46.25
2023-05-09T03:36:39.608Z,44.25
2023-05-09T03:37:41.072Z,51.75
2023-05-09T03:38:43.544Z,50.00
2023-05-09T03:39:45.031Z,42.25
2023-05-09T03:40:47.420Z,46.25
2023-05-09T03:41:49.163Z,53.75
2023-05-09T03:42:51.555Z,45.75
2023-05-09T03:43:52.957Z,45.50
2023-05-09T03:44:55.780Z,44.75
2023-05-09T03:45:57.200Z,42.00
2023-05-09T03:46:59.861Z,40.50
2023-05-09T03:48:01.371Z,46.25
2023-05-09T03:49:04.251Z,48.50
2023-05-09T03:50:08.094Z,41.00
2023-05-09T03:51:10.477Z,36.75
2023-05-09T03:52:11.890Z,46.00
2023-05-09T03:53:14.277Z,42.75
2023-05-09T03:54:15.830Z,46.00
2023-05-09T03:55:18.484Z,44.25
2023-05-09T03:56:19.928Z,44.50
2023-05-09T03:57:22.313Z,45.25
2023-05-09T03:58:23.736Z,47.50
2023-05-09T03:59:26.149Z,45.25
2023-05-09T04:00:27.634Z,42.00
2023-05-09T04:01:30.044Z,43.00
2023-05-09T04:02:33.113Z,51.50
2023-05-09T04:03:36.436Z,43.75
2023-05-09T04:04:37.887Z,45.00
2023-05-09T04:05:41.688Z,43.50
2023-05-09T04:06:43.116Z,43.75
2023-05-09T04:07:45.516Z,41.75
2023-05-09T04:08:46.945Z,44.75
2023-05-09T04:09:49.528Z,49.75
2023-05-09T04:10:51.218Z,49.75
2023-05-09T04:11:53.610Z,49.75
2023-05-09T04:12:55.039Z,46.25
2023-05-09T04:13:57.504Z,46.00
2023-05-09T04:14:58.914Z,49.00
2023-05-09T04:16:01.670Z,50.00
2023-05-09T04:17:03.555Z,44.50
2023-05-09T04:18:06.664Z,44.00
2023-05-09T04:19:08.194Z,44.00
2023-05-09T04:20:11.688Z,49.25
2023-05-09T04:21:14.649Z,49.00
2023-05-09T04:22:17.034Z,47.00
2023-05-09T04:23:18.475Z,46.50
2023-05-09T04:24:20.955Z,43.50
2023-05-09T04:25:22.391Z,45.00
2023-05-09T04:26:24.926Z,51.75
2023-05-09T04:27:27.991Z,46.00
2023-05-09T04:28:30.370Z,45.25
2023-05-09T04:29:32.238Z,47.25
2023-05-09T04:30:34.670Z,58.25
2023-05-09T04:31:36.398Z,43.50
2023-05-09T04:32:39.503Z,45.50
2023-05-09T04:33:41.887Z,54.00
2023-05-09T04:34:43.287Z,50.25
2023-05-09T04:35:46.028Z,47.50
2023-05-09T04:36:48.968Z,48.25
2023-05-09T04:37:52.455Z,46.75
2023-05-09T04:38:53.883Z,47.00
2023-05-09T04:39:56.276Z,45.75
2023-05-09T04:40:58.536Z,43.75
2023-05-09T04:42:01.216Z,44.00
2023-05-09T04:43:04.129Z,50.50
2023-05-09T04:44:06.582Z,46.25
2023-05-09T04:45:09.306Z,45.25
2023-05-09T04:46:11.753Z,51.50
2023-05-09T04:47:13.206Z,45.50
2023-05-09T04:48:15.627Z,48.25
2023-05-09T04:49:17.066Z,48.75
2023-05-09T04:50:19.453Z,46.75
2023-05-09T04:51:20.872Z,43.25
2023-05-09T04:52:24.704Z,42.25
2023-05-09T04:53:26.712Z,48.75
2023-05-09T04:54:29.107Z,44.75
2023-05-09T04:55:30.519Z,45.00
2023-05-09T04:56:32.929Z,51.25
2023-05-09T04:57:34.424Z,49.75
2023-05-09T04:58:38.389Z,47.50
2023-05-09T04:59:40.031Z,43.00
2023-05-09T05:00:42.456Z,50.25
2023-05-09T05:01:43.961Z,48.75
2023-05-09T05:02:46.803Z,47.25
2023-05-09T05:03:48.285Z,48.00
2023-05-09T05:04:50.751Z,50.25
2023-05-09T05:05:52.200Z,54.00
2023-05-09T05:06:54.638Z,50.00
2023-05-09T05:07:57.491Z,43.25
2023-05-09T05:08:59.879Z,49.75
2023-05-09T05:10:01.343Z,44.00
2023-05-09T05:11:03.733Z,42.00
2023-05-09T05:12:09.130Z,52.50
2023-05-09T05:13:12.148Z,56.50
2023-05-09T05:14:13.636Z,45.00
2023-05-09T05:15:16.172Z,51.25
2023-05-09T05:16:17.842Z,50.00
2023-05-09T05:17:20.311Z,42.75
2023-05-09T05:18:21.935Z,49.50
2023-05-09T05:19:24.332Z,45.00
2023-05-09T05:20:25.804Z,50.50
2023-05-09T05:21:28.185Z,44.75
2023-05-09T05:22:32.201Z,45.50
2023-05-09T05:23:36.592Z,41.25
2023-05-09T05:24:38.055Z,52.50
2023-05-09T05:25:40.474Z,49.25
2023-05-09T05:26:41.890Z,48.75
2023-05-09T05:27:44.284Z,43.25
2023-05-09T05:28:45.992Z,43.00
2023-05-09T05:29:48.389Z,59.00
2023-05-09T05:30:49.804Z,45.75
2023-05-09T05:31:52.349Z,51.00
2023-05-09T05:32:53.870Z,50.00
2023-05-09T05:33:56.325Z,41.75
2023-05-09T05:34:57.745Z,47.50
2023-05-09T05:36:00.169Z,45.50
2023-05-09T05:37:01.714Z,47.25
2023-05-09T05:38:04.127Z,44.25
2023-05-09T05:39:07.174Z,46.00
2023-05-09T05:40:10.023Z,49.00
2023-05-09T05:41:11.578Z,51.75
2023-05-09T05:42:13.960Z,44.50
2023-05-09T05:43:15.404Z,46.25
2023-05-09T05:44:17.866Z,49.75
2023-05-09T05:45:19.439Z,47.75
2023-05-09T05:46:22.137Z,47.00
2023-05-09T05:47:23.651Z,50.50
2023-05-09T05:48:26.908Z,44.75
2023-05-09T05:49:28.621Z,45.00
2023-05-09T05:50:31.005Z,51.75
2023-05-09T05:51:33.589Z,48.75
2023-05-09T05:52:35.079Z,46.50
2023-05-09T05:53:37.516Z,45.50
2023-05-09T05:54:40.451Z,49.00
2023-05-09T05:55:42.839Z,45.75
2023-05-09T05:56:44.248Z,43.75
2023-05-09T05:57:47.019Z,46.50
2023-05-09T05:58:48.474Z,51.50
2023-05-09T05:59:51.164Z,48.75
2023-05-09T06:00:52.638Z,42.25
2023-05-09T06:01:55.086Z,49.00
2023-05-09T06:02:56.697Z,46.50
2023-05-09T06:03:59.309Z,44.00
2023-05-09T06:05:00.940Z,50.25
2023-05-09T06:06:03.336Z,52.25
2023-05-09T06:07:04.767Z,47.50
2023-05-09T06:08:07.425Z,46.00
2023-05-09T06:09:09.804Z,52.50
2023-05-09T06:10:12.893Z,43.75
2023-05-09T06:11:15.315Z,43.00
2023-05-09T06:12:17.098Z,51.75
2023-05-09T06:13:19.625Z,50.25
2023-05-09T06:14:21.142Z,51.25
2023-05-09T06:15:23.735Z,51.00
2023-05-09T06:16:26.159Z,49.75
2023-05-09T06:17:28.022Z,42.00
2023-05-09T06:18:30.456Z,47.25
2023-05-09T06:19:31.863Z,47.25
2023-05-09T06:20:35.932Z,49.00
2023-05-09T06:21:37.341Z,52.50
2023-05-09T06:22:39.790Z,50.50
2023-05-09T06:23:57.047Z,53.00
2023-05-09T06:25:03.916Z,43.75
2023-05-09T06:26:06.803Z,43.75
2023-05-09T06:27:09.228Z,58.25
2023-05-09T06:28:10.645Z,48.25
2023-05-09T06:29:14.415Z,48.75
2023-05-09T06:30:25.406Z,42.75
2023-05-09T06:31:29.721Z,44.75
2023-05-09T06:32:31.221Z,43.25
2023-05-09T06:33:33.635Z,46.50
2023-05-09T06:34:35.062Z,47.75
2023-05-09T06:35:37.458Z,49.75
2023-05-09T06:36:40.058Z,54.25
2023-05-09T06:37:41.472Z,51.50
2023-05-09T06:38:43.863Z,52.50
2023-05-09T06:39:45.292Z,44.50
2023-05-09T06:40:47.689Z,50.00
2023-05-09T06:41:50.620Z,52.00
2023-05-09T06:42:53.034Z,42.00
2023-05-09T06:43:54.450Z,40.75
2023-05-09T06:44:56.943Z,45.50
2023-05-09T06:45:59.384Z,46.00
2023-05-09T06:47:01.794Z,46.00
2023-05-09T06:48:04.315Z,44.50
2023-05-09T06:49:06.920Z,50.50
2023-05-09T06:50:08.717Z,46.00
2023-05-09T06:51:11.481Z,48.00
2023-05-09T06:52:15.698Z,52.75
2023-05-09T06:53:18.115Z,51.25
2023-05-09T06:54:19.525Z,47.25
2023-05-09T06:55:21.933Z,48.00
2023-05-09T06:56:24.759Z,45.25
2023-05-09T06:57:28.777Z,46.25
2023-05-09T06:58:30.367Z,49.25
2023-05-09T06:59:32.973Z,45.25
2023-05-09T07:00:34.383Z,45.75
2023-05-09T07:01:36.802Z,47.75
2023-05-09T07:02:41.699Z,46.75
2023-05-09T07:03:44.561Z,48.50
2023-05-09T07:04:46.042Z,43.50
2023-05-09T07:05:48.470Z,50.00
2023-05-09T07:06:49.909Z,41.25
2023-05-09T07:07:54.976Z,39.25
2023-05-09T07:08:57.582Z,43.75
2023-05-09T07:10:10.669Z,39.50
2023-05-09T07:11:14.640Z,41.50
2023-05-09T07:12:16.126Z,47.25
2023-05-09T07:13:20.119Z,47.50
2023-05-09T07:14:21.614Z,50.75
2023-05-09T07:15:39.825Z,50.50
2023-05-09T07:16:44.184Z,46.00
2023-05-09T07:17:45.670Z,48.00
2023-05-09T07:18:48.267Z,43.50
2023-05-09T07:19:49.765Z,49.50
2023-05-09T07:20:52.281Z,55.00
2023-05-09T07:21:53.754Z,48.50
2023-05-09T07:22:58.256Z,48.50
2023-05-09T07:24:00.807Z,49.25
2023-05-09T07:25:02.336Z,49.00
2023-05-09T07:26:04.735Z,43.00
2023-05-09T07:27:06.248Z,48.25
2023-05-09T07:28:08.653Z,49.50
2023-05-09T07:29:11.565Z,47.25
2023-05-09T07:30:14.485Z,52.00
2023-05-09T07:31:16.100Z,49.50
2023-05-09T07:32:18.502Z,46.25
2023-05-09T07:33:20.922Z,51.75
2023-05-09T07:34:25.581Z,47.75
2023-05-09T07:35:28.012Z,52.50
2023-05-09T07:36:30.385Z,52.00
2023-05-09T07:37:31.805Z,51.50
2023-05-09T07:38:34.212Z,47.00
2023-05-09T07:39:35.695Z,46.25
2023-05-09T07:40:38.737Z,55.00
2023-05-09T07:41:41.176Z,51.00
2023-05-09T07:42:46.114Z,54.00
2023-05-09T07:43:48.508Z,49.25
2023-05-09T07:44:51.318Z,47.50
2023-05-09T07:45:55.420Z,50.75
2023-05-09T07:46:59.158Z,48.75
2023-05-09T07:48:00.655Z,47.75
2023-05-09T07:49:03.094Z,50.25
2023-05-09T07:50:05.897Z,51.25
2023-05-09T07:51:08.331Z,48.75
2023-05-09T07:52:09.756Z,53.75
2023-05-09T07:53:12.159Z,55.25
2023-05-09T07:54:14.559Z,47.00
2023-05-09T07:55:17.374Z,49.50
2023-05-09T07:56:19.067Z,52.75
2023-05-09T07:57:21.447Z,52.00
2023-05-09T07:58:22.905Z,45.50
2023-05-09T07:59:25.306Z,45.75
2023-05-09T08:00:28.118Z,55.25
2023-05-09T08:01:30.615Z,42.00
2023-05-09T08:02:33.121Z,46.50
2023-05-09T08:03:35.920Z,50.00
2023-05-09T08:04:41.225Z,50.00
2023-05-09T08:05:44.002Z,46.00
2023-05-09T08:06:45.427Z,49.75
2023-05-09T08:07:47.838Z,49.75
2023-05-09T08:08:49.249Z,47.00
2023-05-09T08:09:51.636Z,45.00
2023-05-09T08:10:53.112Z,50.25
2023-05-09T08:11:55.536Z,53.50
2023-05-09T08:12:56.992Z,47.50
2023-05-09T08:13:59.462Z,45.50
2023-05-09T08:15:00.950Z,49.50
2023-05-09T08:16:04.920Z,51.75
2023-05-09T08:17:06.499Z,44.75
2023-05-09T08:18:08.965Z,47.50
2023-05-09T08:19:10.375Z,51.25
2023-05-09T08:20:13.785Z,47.75
2023-05-09T08:21:16.214Z,50.00
2023-05-09T08:22:18.189Z,52.50
2023-05-09T08:23:20.674Z,45.50
2023-05-09T08:24:23.097Z,48.00
2023-05-09T08:25:25.509Z,47.75
2023-05-09T08:26:27.953Z,50.50
2023-05-09T08:27:30.407Z,46.00
2023-05-09T08:28:32.846Z,49.00
2023-05-09T08:29:35.267Z,47.00
2023-05-09T08:30:37.708Z,50.50
2023-05-09T08:31:41.605Z,47.25
2023-05-09T08:32:43.136Z,50.00
2023-05-09T08:33:45.569Z,43.00
2023-05-09T08:34:48.243Z,44.25
2023-05-09T08:35:51.603Z,45.50
2023-05-09T08:36:54.055Z,46.25
2023-05-09T08:37:56.439Z,41.25
2023-05-09T08:38:58.916Z,41.50
2023-05-09T08:40:01.391Z,48.75
2023-05-09T08:41:04.080Z,44.50
2023-05-09T08:42:07.312Z,42.25
2023-05-09T08:43:11.593Z,47.75
2023-05-09T08:44:13.070Z,46.25
2023-05-09T08:45:15.986Z,43.50
2023-05-09T08:46:17.470Z,42.25
2023-05-09T08:47:21.627Z,42.50
2023-05-09T08:48:24.112Z,40.00
2023-05-09T08:49:26.664Z,41.00
2023-05-09T08:50:29.085Z,38.50
2023-05-09T08:51:32.110Z,43.25
2023-05-09T08:52:34.537Z,42.75
2023-05-09T08:53:36.981Z,41.50
2023-05-09T08:54:39.381Z,41.50
2023-05-09T08:55:40.868Z,37.00
2023-05-09T08:56:43.253Z,38.75
2023-05-09T08:57:45.642Z,37.50
2023-05-09T08:58:47.066Z,41.00
2023-05-09T08:59:49.514Z,35.00
2023-05-09T09:00:51.998Z,42.25
2023-05-09T09:01:54.481Z,40.75
2023-05-09T09:02:57.496Z,37.50
2023-05-09T09:03:59.983Z,40.50
2023-05-09T09:05:02.970Z,36.00
2023-05-09T09:06:04.614Z,37.00
2023-05-09T09:07:08.773Z,37.00
2023-05-09T09:08:10.825Z,33.75
2023-05-09T09:09:13.749Z,34.25
2023-05-09T09:10:16.371Z,37.50
2023-05-09T09:11:18.603Z,34.75
2023-05-09T09:12:22.053Z,34.75
2023-05-09T09:13:23.599Z,41.75
2023-05-09T09:14:26.684Z,35.00
2023-05-09T09:15:29.648Z,36.25
2023-05-09T09:16:32.399Z,33.25
2023-05-09T09:17:33.899Z,35.50
2023-05-09T09:18:39.321Z,35.25
2023-05-09T09:19:42.203Z,34.50
2023-05-09T09:20:46.686Z,32.75
2023-05-09T09:21:50.974Z,35.25
2023-05-09T09:22:53.419Z,35.25
2023-05-09T09:23:55.855Z,33.00
2023-05-09T09:24:58.318Z,33.75
2023-05-09T09:26:00.897Z,37.50
2023-05-09T09:27:05.906Z,37.00
2023-05-09T09:28:07.322Z,34.75
2023-05-09T09:29:09.872Z,38.00
2023-05-09T09:30:13.066Z,41.50
2023-05-09T09:31:21.921Z,40.50
2023-05-09T09:32:25.208Z,37.00
2023-05-09T09:33:27.994Z,36.25
2023-05-09T09:34:31.772Z,35.75
2023-05-09T09:35:33.824Z,40.25
2023-05-09T09:36:36.722Z,36.00
2023-05-09T09:37:39.934Z,35.75
2023-05-09T09:38:43.745Z,36.00
2023-05-09T09:39:54.744Z,36.25
2023-05-09T09:40:56.310Z,36.75
2023-05-09T09:41:58.744Z,35.25
2023-05-09T09:43:00.174Z,39.25
2023-05-09T09:44:07.482Z,32.75
2023-05-09T09:45:10.787Z,35.00
2023-05-09T09:46:14.089Z,31.25
2023-05-09T09:47:16.537Z,32.25
2023-05-09T09:48:18.044Z,34.50
2023-05-09T09:49:20.818Z,31.25
2023-05-09T09:50:24.775Z,31.75
2023-05-09T09:51:28.856Z,35.25
2023-05-09T09:52:31.658Z,32.25
2023-05-09T09:53:39.455Z,37.00
2023-05-09T09:54:41.972Z,33.00
2023-05-09T09:55:50.118Z,32.75
2023-05-09T09:56:54.274Z,36.50
2023-05-09T09:57:56.677Z,29.25
2023-05-09T09:59:09.058Z,30.50
2023-05-09T10:00:11.626Z,31.00
2023-05-09T10:01:16.445Z,31.00
2023-05-09T10:02:18.120Z,34.75
2023-05-09T10:03:20.674Z,32.50
2023-05-09T10:04:22.349Z,28.50
2023-05-09T10:05:26.553Z,32.00
2023-05-09T10:06:27.979Z,29.25
2023-05-09T10:07:33.933Z,29.50
2023-05-09T10:08:37.868Z,28.25
2023-05-09T10:09:40.907Z,30.00
2023-05-09T10:10:43.315Z,32.50
2023-05-09T10:11:44.989Z,29.75
2023-05-09T10:12:47.522Z,31.50
2023-05-09T10:13:49.180Z,32.25
2023-05-09T10:14:51.607Z,29.50
2023-05-09T10:15:54.345Z,29.00
2023-05-09T10:16:57.473Z,27.75
2023-05-09T10:18:00.903Z,26.00
2023-05-09T10:19:03.641Z,28.75
2023-05-09T10:20:05.630Z,33.00
2023-05-09T10:21:09.453Z,30.00
2023-05-09T10:22:11.063Z,31.75
2023-05-09T10:23:13.570Z,31.00
2023-05-09T10:24:15.009Z,32.25
2023-05-09T10:25:18.745Z,32.25
2023-05-09T10:26:23.212Z,33.50
2023-05-09T10:27:25.732Z,32.50
2023-05-09T10:28:33.469Z,32.25
2023-05-09T10:29:36.602Z,32.00
2023-05-09T10:30:41.203Z,37.50
2023-05-09T10:31:43.681Z,39.50
2023-05-09T10:32:48.679Z,37.50
2023-05-09T10:33:55.850Z,34.50
2023-05-09T10:34:59.827Z,32.00
2023-05-09T10:36:03.857Z,33.50
2023-05-09T10:37:07.484Z,38.25
2023-05-09T10:38:13.474Z,33.25
2023-05-09T10:39:16.298Z,41.25
2023-05-09T10:40:20.022Z,35.50
2023-05-09T10:41:23.558Z,30.25
2023-05-09T10:42:25.286Z,37.00
2023-05-09T10:43:27.948Z,37.50
2023-05-09T10:44:30.328Z,35.75
2023-05-09T10:45:33.237Z,36.50
2023-05-09T10:46:34.766Z,37.00
2023-05-09T10:47:37.362Z,33.75
2023-05-09T10:48:38.886Z,33.50
2023-05-09T10:49:41.773Z,37.00
2023-05-09T10:50:44.549Z,39.00
2023-05-09T10:51:46.293Z,40.00
2023-05-09T10:53:11.397Z,36.00
2023-05-09T10:54:17.546Z,41.50
2023-05-09T10:55:19.743Z,33.00
2023-05-09T10:56:26.292Z,33.75
2023-05-09T10:57:29.742Z,36.25
2023-05-09T10:58:33.540Z,30.75
2023-05-09T10:59:36.220Z,34.50
2023-05-09T11:00:41.550Z,38.50
2023-05-09T11:01:44.059Z,35.75
2023-05-09T11:02:52.966Z,35.50
2023-05-09T11:03:55.726Z,35.00
2023-05-09T11:05:14.075Z,35.25
2023-05-09T11:06:24.224Z,32.75
2023-05-09T11:07:26.258Z,36.75
2023-05-09T11:08:30.167Z,43.50
2023-05-09T11:09:33.012Z,40.50
2023-05-09T11:10:42.758Z,38.00
2023-05-09T11:11:51.049Z,39.00
2023-05-09T11:12:58.053Z,38.00
2023-05-09T11:13:59.744Z,38.50
2023-05-09T11:15:05.523Z,38.75
2023-05-09T11:16:11.461Z,39.25
2023-05-09T11:17:14.614Z,39.75
2023-05-09T11:18:16.602Z,35.00
2023-05-09T11:19:34.318Z,39.75
2023-05-09T11:20:36.918Z,39.25
2023-05-09T11:21:39.299Z,42.75
2023-05-09T11:22:42.747Z,38.25
2023-05-09T11:23:46.646Z,40.75
2023-05-09T11:24:48.398Z,42.00
2023-05-09T11:25:50.796Z,39.75
2023-05-09T11:26:52.262Z,42.50
2023-05-09T11:27:58.638Z,38.00
2023-05-09T11:29:00.133Z,35.75
2023-05-09T11:30:04.189Z,36.00
2023-05-09T11:31:10.269Z,37.00
2023-05-09T11:32:13.343Z,38.25
2023-05-09T11:33:24.936Z,35.75
2023-05-09T11:34:27.619Z,39.25
2023-05-09T11:35:29.247Z,37.75
2023-05-09T11:36:33.424Z,38.50
2023-05-09T11:37:37.890Z,34.50
2023-05-09T11:38:41.535Z,31.75
2023-05-09T11:39:58.707Z,32.00
2023-05-09T11:41:01.181Z,32.75
2023-05-09T11:42:04.835Z,35.50
2023-05-09T11:43:07.851Z,33.75
2023-05-09T11:44:16.491Z,34.50
2023-05-09T11:45:19.064Z,31.25
2023-05-09T11:46:21.279Z,32.00
2023-05-09T11:47:23.792Z,31.75
2023-05-09T11:48:25.594Z,32.25
2023-05-09T11:49:29.115Z,27.00
2023-05-09T11:50:31.623Z,27.00
2023-05-09T11:51:35.134Z,33.25
2023-05-09T11:52:38.272Z,29.75
2023-05-09T11:53:44.927Z,34.25
2023-05-09T11:54:47.583Z,33.75
2023-05-09T11:55:51.444Z,30.00
2023-05-09T11:56:52.908Z,31.50
2023-05-09T11:57:55.378Z,33.33
2023-05-09T11:58:57.819Z,35.75
2023-05-09T12:00:01.237Z,36.00
2023-05-09T12:01:03.776Z,35.00
2023-05-09T12:02:06.625Z,35.75
2023-05-09T12:03:09.211Z,28.50
2023-05-09T12:04:10.948Z,35.25
2023-05-09T12:05:14.409Z,34.00
2023-05-09T12:06:16.672Z,36.25
2023-05-09T12:07:19.196Z,34.25
2023-05-09T12:08:21.649Z,32.50
2023-05-09T12:09:23.406Z,34.75
2023-05-09T12:10:25.829Z,33.50
2023-05-09T12:11:28.733Z,37.25
2023-05-09T12:12:31.138Z,32.50
2023-05-09T12:13:32.841Z,42.75
2023-05-09T12:14:35.484Z,36.25
2023-05-09T12:15:38.005Z,36.00
2023-05-09T12:16:45.944Z,37.00
2023-05-09T12:17:50.573Z,30.25
2023-05-09T12:18:54.856Z,32.50
2023-05-09T12:19:59.797Z,37.50
2023-05-09T12:21:02.294Z,32.75
2023-05-09T12:22:06.617Z,27.75
2023-05-09T12:23:09.041Z,33.50
2023-05-09T12:24:11.505Z,31.50
2023-05-09T12:25:14.129Z,26.50
2023-05-09T12:26:15.761Z,31.25
2023-05-09T12:27:19.660Z,32.00
2023-05-09T12:28:22.324Z,26.75
2023-05-09T12:29:23.805Z,32.50
2023-05-09T12:30:26.403Z,36.50
2023-05-09T12:31:27.983Z,32.75
2023-05-09T12:32:32.773Z,33.00
2023-05-09T12:33:34.685Z,31.00
2023-05-09T12:34:37.293Z,36.50
2023-05-09T12:35:39.545Z,38.25
2023-05-09T12:36:43.917Z,35.50
2023-05-09T12:37:55.560Z,34.75
2023-05-09T12:38:58.572Z,41.25
2023-05-09T12:40:01.472Z,34.50
2023-05-09T12:41:03.836Z,34.50
2023-05-09T12:42:10.385Z,37.50
2023-05-09T12:43:14.141Z,36.50
2023-05-09T12:44:20.792Z,39.25
2023-05-09T12:45:23.412Z,35.75
2023-05-09T12:46:25.980Z,36.50
2023-05-09T12:47:28.797Z,36.25
2023-05-09T12:48:31.567Z,34.50
2023-05-09T12:49:37.201Z,33.25
2023-05-09T12:50:39.956Z,39.00
2023-05-09T12:51:48.660Z,34.75
2023-05-09T12:53:01.987Z,33.75
2023-05-09T12:54:05.913Z,37.50
2023-05-09T12:55:07.936Z,35.75
2023-05-09T12:56:13.711Z,37.00
2023-05-09T12:57:22.705Z,36.75
2023-05-09T12:58:29.809Z,36.75
2023-05-09T12:59:33.281Z,32.50
2023-05-09T13:00:44.068Z,36.25
2023-05-09T13:01:46.495Z,33.00
2023-05-09T13:02:50.810Z,38.75
2023-05-09T13:03:52.471Z,36.75
2023-05-09T13:05:06.154Z,37.00
2023-05-09T13:06:12.725Z,37.25
2023-05-09T13:07:15.131Z,33.00
2023-05-09T13:08:16.651Z,33.25
2023-05-09T13:09:19.267Z,33.25
2023-05-09T13:10:26.052Z,33.75
2023-05-09T13:11:28.513Z,32.75
2023-05-09T13:12:30.959Z,26.25
2023-05-09T13:13:33.748Z,27.75
2023-05-09T13:14:36.228Z,28.50
2023-05-09T13:15:39.143Z,28.75
2023-05-09T13:16:42.013Z,32.00
2023-05-09T13:17:44.570Z,27.25
2023-05-09T13:18:47.029Z,32.00
2023-05-09T13:19:49.560Z,31.75
2023-05-09T13:20:51.015Z,32.50
2023-05-09T13:21:55.031Z,32.25
2023-05-09T13:22:57.677Z,26.50
2023-05-09T13:24:00.151Z,27.25
2023-05-09T13:25:02.644Z,27.75
2023-05-09T13:26:04.125Z,27.50
2023-05-09T13:27:06.510Z,27.00
2023-05-09T13:28:08.734Z,27.00
2023-05-09T13:29:12.544Z,28.25
2023-05-09T13:30:15.574Z,24.75
2023-05-09T13:31:18.985Z,21.75